Time;durP1;ratioP1;P1;durP2;ratioP2;P2;SDS_P1;SDS_P2;PMS_P1;PMS_P2;Temp;Humidity;BMP_temperature;BMP_pressure;BME280_temperature;BME280_humidity;BME280_pressure;Samples;Min_cycle;Max_cycle;Signal;HPM_P1;HPM_P2
2022/07/20 00:01:19;;;;;;;5.65;4.68;;;22.90;99.60;;;-141.84;41.00;21621.03;5034138;28;20256;-63
2022/07/20 00:03:47;;;;;;;6.50;4.32;;;22.90;99.70;;;-141.84;41.10;21578.31;5033617;28;20221;-63
2022/07/20 00:06:16;;;;;;;8.00;4.45;;;22.90;99.80;;;-141.84;40.83;21578.31;5033529;28;20229;-62
2022/07/20 00:11:30;;;;;;;7.18;4.47;;;22.90;99.90;;;-141.84;41.20;21566.13;5033238;28;20312;-62
2022/07/20 00:14:02;;;;;;;5.03;4.00;;;22.90;99.90;;;-141.84;41.39;21598.66;5033090;28;20297;-62
2022/07/20 00:16:33;;;;;;;4.50;4.10;;;22.90;99.90;;;-141.84;41.46;21600.69;5033179;28;20600;-61
2022/07/20 00:19:01;;;;;;;5.78;4.20;;;22.90;99.90;;;-141.84;41.30;21533.59;5033000;28;20218;-63
2022/07/20 00:21:29;;;;;;;6.50;4.80;;;22.90;99.90;;;-141.84;41.45;21558.00;5032980;28;20225;-61
2022/07/20 00:23:57;;;;;;;10.43;4.65;;;22.80;99.90;;;-141.84;41.57;21551.91;5038090;28;20286;-61
2022/07/20 00:26:26;;;;;;;4.38;3.97;;;22.80;99.90;;;-141.84;41.64;21537.66;5052563;28;20342;-63
2022/07/20 00:28:55;;;;;;;4.97;4.47;;;22.80;99.90;;;-141.84;42.06;21541.72;5052782;28;20296;-63
2022/07/20 00:31:23;;;;;;;7.57;4.10;;;22.80;99.90;;;-141.84;41.72;21480.72;5052761;28;20312;-63
2022/07/20 00:33:52;;;;;;;5.35;4.53;;;22.70;99.90;;;-141.84;41.93;21503.09;5035193;28;20234;-62
2022/07/20 00:36:21;;;;;;;6.30;4.18;;;22.70;99.90;;;-141.84;41.89;21525.47;5032718;28;20256;-61
2022/07/20 00:38:49;;;;;;;4.63;4.03;;;22.70;99.90;;;-141.84;42.10;21545.78;5032550;28;20353;-62
2022/07/20 00:41:18;;;;;;;5.53;4.20;;;22.70;99.90;;;-141.84;42.26;21474.63;5032804;28;20308;-62
2022/07/20 00:44:03;;;;;;;7.00;4.10;;;22.60;99.90;;;-141.84;42.11;21521.41;5039374;28;20286;-63
2022/07/20 00:46:34;;;;;;;5.65;4.00;;;22.70;99.90;;;-141.84;42.62;21519.34;5052544;28;20634;-63
2022/07/20 00:49:04;;;;;;;8.15;4.00;;;22.60;99.90;;;-141.84;42.71;21480.72;5052210;28;20225;-64
2022/07/20 00:51:33;;;;;;;6.90;4.43;;;22.60;99.90;;;-141.84;42.76;21476.66;5052245;28;20229;-61
2022/07/20 00:54:04;;;;;;;4.97;4.47;;;22.60;99.90;;;-141.84;42.93;21486.81;5052338;28;20311;-60
2022/07/20 00:56:33;;;;;;;4.68;4.28;;;22.50;99.90;;;-141.84;42.90;21494.97;5052190;28;20584;-63
2022/07/20 00:59:05;;;;;;;6.95;4.53;;;22.50;99.90;;;-141.84;43.08;21472.59;5043708;28;20280;-61
2022/07/20 01:01:34;;;;;;;6.35;4.13;;;22.50;99.90;;;-141.84;43.35;21464.47;5032871;28;20269;-61
2022/07/20 01:04:04;;;;;;;7.25;4.18;;;22.50;99.90;;;-141.84;43.54;21497.00;5032069;28;20237;-61
2022/07/20 01:06:33;;;;;;;6.30;4.13;;;22.40;99.90;;;-141.84;43.68;21442.09;5032156;28;20256;-62
2022/07/20 01:09:01;;;;;;;4.88;4.05;;;22.30;99.90;;;-141.84;43.76;21425.84;5031858;28;20437;-60
2022/07/20 01:11:30;;;;;;;5.55;4.43;;;22.30;99.90;;;-141.84;43.74;21407.53;5031993;28;20704;-63
2022/07/20 01:14:05;;;;;;;4.68;4.25;;;22.20;99.90;;;-141.84;44.11;21387.19;5031659;28;20235;-63
2022/07/20 01:16:34;;;;;;;5.57;4.25;;;22.20;99.90;;;-141.84;44.22;21415.66;5032622;28;20218;-62
2022/07/20 01:19:04;;;;;;;11.23;4.50;;;22.10;99.90;;;-141.84;44.55;21358.75;5032023;28;20226;-62
2022/07/20 01:21:39;;;;;;;6.10;4.20;;;22.10;99.90;;;-141.84;44.23;21401.44;5031883;28;20612;-62
2022/07/20 01:24:10;;;;;;;6.63;4.53;;;22.10;99.90;;;-141.84;44.69;21397.38;5038157;28;20640;-62
2022/07/20 01:26:40;;;;;;;4.38;3.95;;;22.10;99.90;;;-141.84;44.51;21381.09;5051875;28;20248;-61
2022/07/20 01:29:10;;;;;;;5.05;4.15;;;22.00;99.90;;;-141.84;44.85;21379.06;5051166;28;20672;-62
2022/07/20 01:31:38;;;;;;;4.90;4.03;;;22.00;99.90;;;-141.84;44.96;21305.88;5051809;28;20741;-62
2022/07/20 01:34:07;;;;;;;4.78;4.10;;;21.90;99.90;;;-141.84;44.92;21364.84;5051273;28;20241;-62
2022/07/20 01:36:36;;;;;;;4.93;4.18;;;21.90;99.90;;;-141.84;44.67;21391.28;5051398;28;20229;-62
2022/07/20 01:39:05;;;;;;;5.50;4.20;;;21.90;99.90;;;-141.84;44.76;21395.34;5051511;28;20257;-62
2022/07/20 01:41:33;;;;;;;4.60;4.10;;;21.90;99.90;;;-141.84;44.81;21326.22;5050279;28;20653;-62
2022/07/20 01:44:01;;;;;;;5.55;3.85;;;21.90;99.90;;;-141.84;44.98;21360.78;5051192;28;20252;-63
2022/07/20 01:46:29;;;;;;;5.47;4.15;;;21.90;99.90;;;-141.84;45.34;21332.31;5051740;28;20288;-61
2022/07/20 01:48:58;;;;;;;5.60;3.97;;;21.80;99.90;;;-141.84;45.63;21320.09;5051111;28;20225;-62
2022/07/20 01:51:26;;;;;;;5.13;4.32;;;21.80;99.90;;;-141.84;45.66;21279.44;5051157;28;20776;-62
2022/07/20 01:53:55;;;;;;;8.43;4.32;;;21.70;99.90;;;-141.84;45.60;21281.47;5051088;28;20335;-62
2022/07/20 01:56:24;;;;;;;5.80;3.78;;;21.70;99.90;;;-141.84;46.00;21305.88;5051173;28;20300;-62
2022/07/20 01:58:52;;;;;;;5.78;4.13;;;21.60;99.90;;;-141.84;46.05;21277.41;5043795;28;20293;-62
2022/07/20 02:01:22;;;;;;;4.50;4.10;;;21.60;99.90;;;-141.84;46.43;21261.16;5031407;28;20692;-63
2022/07/20 02:03:50;;;;;;;6.32;4.22;;;21.50;99.90;;;-141.84;46.33;21301.81;5030966;28;20230;-61
2022/07/20 02:06:18;;;;;;;4.57;4.18;;;21.50;99.90;;;-141.84;46.50;21291.66;5030946;28;20229;-61
2022/07/20 02:08:47;;;;;;;4.68;4.28;;;21.50;99.90;;;-141.84;46.89;21250.97;5031141;28;20226;-62
2022/07/20 02:11:17;;;;;;;4.65;4.25;;;21.40;99.90;;;-141.84;46.97;21240.81;5031019;28;20230;-62
2022/07/20 02:13:45;;;;;;;6.82;4.10;;;21.40;99.90;;;-141.84;47.12;21214.38;5031483;28;20229;-61
2022/07/20 02:16:15;;;;;;;5.82;4.15;;;21.40;99.90;;;-141.84;46.96;21253.00;5030698;28;20229;-61
2022/07/20 02:18:47;;;;;;;7.72;4.18;;;21.30;99.90;;;-141.84;46.93;21244.88;5030716;28;20244;-62
2022/07/20 02:21:17;;;;;;;4.85;4.35;;;21.30;99.90;;;-141.84;47.12;21220.47;5030899;28;20225;-62
2022/07/20 02:23:46;;;;;;;6.13;4.22;;;21.30;99.90;;;-141.84;47.41;21216.41;5034304;28;20256;-62
2022/07/20 02:26:16;;;;;;;5.88;4.43;;;21.30;99.90;;;-141.84;47.31;21218.44;5050550;28;20665;-63
2022/07/20 02:28:46;;;;;;;6.38;4.47;;;21.20;99.90;;;-141.84;47.67;21202.19;5051557;28;20236;-61
2022/07/20 02:31:18;;;;;;;4.72;4.32;;;21.20;99.90;;;-141.84;47.63;21183.88;5050703;28;20283;-63
2022/07/20 02:33:47;;;;;;;5.30;4.07;;;21.20;99.90;;;-141.84;47.67;21236.75;5050381;28;20238;-62
2022/07/20 02:36:16;;;;;;;4.82;4.13;;;21.20;99.90;;;-141.84;47.99;21214.38;5050542;28;20284;-61
2022/07/20 02:38:45;;;;;;;6.30;4.22;;;21.10;99.90;;;-141.84;48.03;21204.22;5050252;28;20263;-63
2022/07/20 02:41:14;;;;;;;7.93;4.53;;;21.10;99.90;;;-141.84;48.07;21200.16;5050238;28;20789;-63
2022/07/20 02:43:42;;;;;;;4.78;4.13;;;21.10;99.90;;;-141.84;48.32;21173.72;5050664;28;20197;-62
2022/07/20 02:46:12;;;;;;;5.75;4.50;;;21.00;99.90;;;-141.84;48.54;21151.34;5050000;28;20720;-62
2022/07/20 02:48:40;;;;;;;6.45;4.70;;;21.00;99.90;;;-141.84;48.48;21143.22;5050020;28;20252;-63
2022/07/20 02:51:08;;;;;;;4.65;4.20;;;21.00;99.90;;;-141.84;48.61;21151.34;5050140;28;20312;-63
2022/07/20 02:53:36;;;;;;;4.50;4.07;;;21.00;99.90;;;-141.84;48.49;21179.81;5052280;28;20658;-63
2022/07/20 02:56:04;;;;;;;7.68;4.60;;;21.00;99.90;;;-141.84;48.59;21147.28;5054202;28;20327;-64
2022/07/20 02:58:33;;;;;;;5.15;4.50;;;20.90;99.90;;;-141.84;48.62;21185.91;5050329;28;20278;-63
2022/07/20 03:01:01;;;;;;;6.25;4.63;;;20.90;99.90;;;-141.84;48.70;21135.09;5033786;28;20300;-62
2022/07/20 03:03:31;;;;;;;4.65;4.10;;;20.90;99.90;;;-141.84;48.86;21143.22;5034056;28;20708;-63
2022/07/20 03:06:00;;;;;;;4.75;4.25;;;20.90;99.90;;;-141.84;48.55;21200.16;5033987;28;20234;-64
2022/07/20 03:08:28;;;;;;;4.97;4.45;;;20.90;99.90;;;-141.84;48.74;21131.03;5034272;28;20253;-62
2022/07/20 03:10:56;;;;;;;6.25;4.50;;;20.90;99.90;;;-141.84;49.27;21139.16;5033831;28;20534;-62
2022/07/20 03:13:25;;;;;;;5.05;4.65;;;20.90;99.90;;;-141.84;49.40;21135.09;5034451;28;20280;-62
2022/07/20 03:15:53;;;;;;;5.10;4.60;;;20.80;99.90;;;-141.84;49.27;21126.97;5033634;28;20256;-63
2022/07/20 03:18:22;;;;;;;5.25;4.32;;;20.80;99.90;;;-141.84;49.19;21183.88;5033817;28;20236;-64
2022/07/20 03:20:51;;;;;;;4.53;4.07;;;20.80;99.90;;;-141.84;49.40;21129.00;5036071;28;20309;-61
2022/07/20 03:23:19;;;;;;;4.65;4.18;;;20.80;99.90;;;-141.84;49.86;21098.50;5053870;28;20227;-62
2022/07/20 03:25:47;;;;;;;5.93;4.20;;;20.80;99.90;;;-141.84;49.85;21088.34;5034450;28;20297;-62
2022/07/20 03:28:17;;;;;;;6.60;4.38;;;20.70;99.90;;;-141.84;49.69;21165.59;5034196;28;20684;-62
2022/07/20 03:30:46;;;;;;;5.03;4.22;;;20.70;99.90;;;-141.84;49.73;21106.63;5033380;28;20320;-63
2022/07/20 03:33:14;;;;;;;5.40;4.60;;;20.70;99.90;;;-141.84;49.77;21122.91;5033569;28;20244;-63
2022/07/20 03:35:42;;;;;;;6.47;4.22;;;20.70;99.90;;;-141.84;50.27;21092.41;5033519;28;20645;-63
2022/07/20 03:38:12;;;;;;;5.15;4.60;;;20.70;99.90;;;-141.84;49.89;21120.88;5033583;28;20725;-62
2022/07/20 03:40:40;;;;;;;6.30;4.40;;;20.80;99.90;;;-141.84;50.29;21098.50;5033649;28;20202;-62
2022/07/20 03:43:09;;;;;;;5.13;4.20;;;20.70;99.90;;;-141.84;50.29;21104.59;5034180;28;20225;-62
2022/07/20 03:45:37;;;;;;;5.38;4.63;;;20.70;99.90;;;-141.84;50.14;21106.63;5053186;28;20229;-61
2022/07/20 03:48:06;;;;;;;7.22;4.57;;;20.70;99.90;;;-141.84;50.05;21110.69;5053392;28;20257;-61
2022/07/20 03:50:34;;;;;;;5.55;4.45;;;20.70;99.90;;;-141.84;50.10;21094.44;5053240;28;20225;-62
2022/07/20 03:53:02;;;;;;;4.88;4.35;;;20.80;99.90;;;-141.84;49.90;21096.47;5053470;28;20292;-61
2022/07/20 03:55:33;;;;;;;5.93;4.32;;;20.80;99.90;;;-141.84;49.79;21106.63;5053481;28;20657;-62
2022/07/20 03:58:01;;;;;;;5.53;4.45;;;20.80;99.90;;;-141.84;49.76;21108.66;5053458;28;20308;-60
2022/07/20 04:00:30;;;;;;;4.88;4.15;;;20.80;99.90;;;-141.84;49.80;21137.13;5032991;28;20229;-62
2022/07/20 04:02:59;;;;;;;4.93;4.40;;;20.80;99.90;;;-141.84;49.81;21139.16;5033032;28;20364;-61
2022/07/20 04:05:27;;;;;;;7.00;4.82;;;20.80;99.90;;;-141.84;49.75;21139.16;5032138;28;20226;-60
2022/07/20 04:07:55;;;;;;;7.50;4.45;;;20.90;99.90;;;-141.84;49.44;21179.81;5033603;28;20202;-62
2022/07/20 04:10:24;;;;;;;5.82;4.40;;;20.90;99.90;;;-141.84;49.44;21192.03;5033644;28;20429;-64
2022/07/20 04:12:54;;;;;;;7.55;4.47;;;21.00;99.90;;;-141.84;49.62;21139.16;5032751;28;20238;-61
2022/07/20 04:15:22;;;;;;;5.75;4.90;;;21.00;99.90;;;-141.84;49.49;21159.50;5032554;28;20230;-61
2022/07/20 04:17:50;;;;;;;5.72;4.38;;;21.00;99.90;;;-141.84;49.49;21163.56;5041052;28;20668;-61
2022/07/20 04:20:18;;;;;;;6.45;4.20;;;21.00;99.90;;;-141.84;49.14;21198.13;5052711;28;20231;-56
2022/07/20 04:22:46;;;;;;;5.78;4.78;;;21.10;99.90;;;-141.84;49.36;21190.00;5053447;28;20204;-58
2022/07/20 04:25:14;;;;;;;4.78;4.38;;;21.10;99.90;;;-141.84;49.32;21204.22;5052830;28;20564;-56
2022/07/20 04:27:44;;;;;;;5.80;4.78;;;21.20;99.90;;;-141.84;49.31;21185.91;5052942;28;20237;-59
2022/07/20 04:30:14;;;;;;;5.57;4.68;;;21.20;99.90;;;-141.84;49.31;21210.31;5052561;28;20594;-56
2022/07/20 04:32:42;;;;;;;6.45;4.43;;;21.20;99.90;;;-141.84;49.51;21192.03;5052555;28;20316;-56
2022/07/20 04:35:11;;;;;;;7.80;4.68;;;21.20;99.90;;;-141.84;49.00;21218.44;5052089;28;20227;-55
2022/07/20 04:37:39;;;;;;;5.68;4.57;;;21.30;99.90;;;-141.84;48.91;21228.63;5053122;28;20217;-57
2022/07/20 04:40:09;;;;;;;4.85;4.20;;;21.40;99.90;;;-141.84;48.90;21253.00;5052237;28;20305;-56
2022/07/20 04:42:38;;;;;;;7.70;4.93;;;21.50;99.90;;;-141.84;48.54;21285.53;5052222;28;20726;-57
2022/07/20 04:45:07;;;;;;;7.60;4.80;;;21.50;99.90;;;-141.84;48.20;21255.03;5052071;28;20229;-57
2022/07/20 04:47:36;;;;;;;4.88;4.30;;;21.60;99.90;;;-141.84;48.15;21271.31;5051928;28;20224;-56
2022/07/20 04:50:05;;;;;;;6.72;4.57;;;21.70;99.90;;;-141.84;47.58;21289.59;5052358;28;20240;-57
2022/07/20 04:52:33;;;;;;;5.25;4.55;;;21.80;99.90;;;-141.84;47.63;21342.47;5052426;28;20312;-54
2022/07/20 04:55:02;;;;;;;5.22;4.53;;;21.90;99.90;;;-141.84;47.29;21358.75;5052095;28;20231;-58
2022/07/20 04:57:30;;;;;;;6.20;4.90;;;22.00;99.90;;;-141.84;46.70;21427.88;5051853;28;20315;-57
2022/07/20 04:59:58;;;;;;;5.35;4.15;;;22.20;99.90;;;-141.84;46.19;21513.25;5035550;28;20222;-57
2022/07/20 05:02:26;;;;;;;5.55;4.70;;;22.50;99.90;;;-141.84;43.47;21828.44;5032076;28;20324;-55
2022/07/20 05:04:56;;;;;;;6.13;4.88;;;23.40;99.90;;;-141.84;40.18;22145.66;5032147;28;20296;-57
2022/07/20 05:07:24;;;;;;;6.22;4.57;;;24.50;99.90;;;-141.84;37.73;22485.28;5032176;28;20253;-58
2022/07/20 05:09:52;;;;;;;7.57;4.50;;;25.70;99.90;;;-141.84;35.69;22845.25;5031672;28;20225;-57
2022/07/20 05:12:20;;;;;;;6.70;4.57;;;26.90;99.90;;;-141.84;34.17;23079.19;5031805;28;20236;-59
2022/07/20 05:14:49;;;;;;;9.77;4.88;;;27.90;99.90;;;-141.84;33.43;23294.78;5046243;28;20324;-58
2022/07/20 05:17:17;;;;;;;5.55;4.32;;;28.60;99.90;;;-141.84;31.90;23547.03;5051289;28;20225;-58
2022/07/20 05:19:45;;;;;;;8.80;5.30;;;29.40;99.90;;;-141.84;31.32;23738.25;5052061;28;20748;-58
2022/07/20 05:22:15;;;;;;;8.55;4.53;;;29.70;99.90;;;-141.84;30.86;23888.81;5051560;28;20209;-57
2022/07/20 05:24:43;;;;;;;8.48;4.88;;;30.00;99.80;;;-141.84;30.09;24037.34;5051694;28;20221;-57
2022/07/20 05:27:11;;;;;;;8.32;4.10;;;30.20;98.90;;;-141.84;30.03;24086.16;5051162;28;20313;-58
2022/07/20 05:29:41;;;;;;;9.90;6.13;;;30.50;98.70;;;-141.84;30.20;24096.34;5051344;28;20231;-58
2022/07/20 05:32:09;;;;;;;6.40;4.75;;;30.70;98.10;;;-141.84;30.13;23945.78;5051149;28;20321;-58
2022/07/20 05:34:37;;;;;;;9.32;4.70;;;30.50;98.40;;;-141.84;30.45;23840.00;5051637;28;20201;-57
2022/07/20 05:37:05;;;;;;;8.43;4.90;;;30.30;98.20;;;-141.84;31.86;23614.16;5050755;28;20225;-58
2022/07/20 05:39:34;;;;;;;8.13;5.50;;;29.80;99.20;;;-141.84;32.34;23347.69;5051365;28;20229;-57
2022/07/20 05:42:03;;;;;;;8.90;5.55;;;29.40;99.10;;;-141.84;33.57;23056.81;5050970;28;20231;-56
2022/07/20 05:44:31;;;;;;;8.55;5.63;;;28.80;99.70;;;-141.84;34.55;22881.88;5050736;28;20225;-57
2022/07/20 05:46:59;;;;;;;11.40;5.43;;;28.30;99.90;;;-141.84;35.40;22772.03;5050596;28;20304;-57
2022/07/20 05:49:28;;;;;;;7.85;6.13;;;;;;;-141.84;35.62;22715.09;5051684;28;20667;-58
2022/07/20 05:51:56;;;;;;;13.32;5.63;;;27.60;99.90;;;-141.84;36.11;22613.41;5050622;28;20229;-57
2022/07/20 05:54:24;;;;;;;10.88;5.35;;;27.60;99.90;;;-141.84;36.78;22619.50;5050786;28;20228;-55
2022/07/20 05:56:53;;;;;;;6.35;5.10;;;27.40;99.90;;;-141.84;36.73;22578.81;5050817;28;20233;-56
2022/07/20 05:59:21;;;;;;;6.63;4.60;;;27.40;99.90;;;-141.84;36.49;22576.78;5039549;28;20717;-58
2022/07/20 06:01:49;;;;;;;8.05;4.25;;;27.40;99.90;;;-141.84;36.33;22558.50;5030591;28;20202;-59
2022/07/20 06:04:17;;;;;;;5.70;4.15;;;27.40;99.90;;;-141.84;36.40;22603.22;5035303;28;20661;-58
2022/07/20 06:06:45;;;;;;;9.00;4.35;;;27.40;99.90;;;-141.84;36.39;22582.91;5050296;28;20708;-57
2022/07/20 06:09:14;;;;;;;4.85;4.28;;;27.50;99.90;;;-141.84;36.01;22599.16;5050468;28;20221;-56
2022/07/20 06:11:53;;;;;;;5.15;4.10;;;27.60;99.90;;;-141.84;36.16;22629.66;5038185;28;20308;-57
2022/07/20 06:14:21;;;;;;;7.60;4.40;;;27.60;99.90;;;-141.84;35.74;22650.00;5050476;28;20217;-59
2022/07/20 06:16:49;;;;;;;6.03;4.30;;;27.70;99.90;;;-141.84;35.45;22668.31;5050318;28;20201;-59
2022/07/20 06:19:18;;;;;;;5.88;4.15;;;27.80;99.90;;;-141.84;35.15;22696.78;5051057;28;20237;-58
2022/07/20 06:21:46;;;;;;;7.40;4.38;;;27.90;99.90;;;-141.84;35.24;22711.03;5050730;28;20221;-58
2022/07/20 06:24:15;;;;;;;6.97;4.10;;;27.90;99.90;;;-141.84;35.22;22733.41;5050082;28;20700;-57
2022/07/20 06:26:45;;;;;;;6.95;3.70;;;28.00;99.90;;;-141.84;35.15;22749.66;5050416;28;20233;-59
2022/07/20 06:29:15;;;;;;;10.65;4.72;;;28.10;99.90;;;-141.84;34.52;22829.00;5049368;28;20632;-59
2022/07/20 06:31:44;;;;;;;6.53;4.38;;;28.10;99.80;;;-141.84;34.97;22776.09;5030751;28;20301;-53
2022/07/20 06:34:32;;;;;;;5.97;4.00;;;28.30;99.90;;;-141.84;35.39;22778.16;5030798;28;20241;-60
2022/07/20 06:37:00;;;;;;;7.85;4.18;;;28.40;99.90;;;-141.84;35.23;22782.22;5032627;28;20590;-55
2022/07/20 06:39:28;;;;;;;8.98;4.43;;;28.50;99.90;;;-141.84;34.91;22826.97;5049917;28;20719;-57
2022/07/20 06:41:56;;;;;;;6.70;4.50;;;28.50;99.90;;;-141.84;35.11;22802.56;5050033;28;20225;-54
2022/07/20 06:44:25;;;;;;;8.82;4.10;;;28.60;99.90;;;-141.84;34.56;22873.75;5050055;28;20229;-56
2022/07/20 06:46:53;;;;;;;9.00;4.90;;;28.70;99.60;;;-141.84;34.60;22881.88;5049927;28;20201;-59
2022/07/20 06:49:26;;;;;;;6.95;4.38;;;28.60;99.60;;;-141.84;34.13;22869.66;5050698;28;20189;-58
2022/07/20 06:51:54;;;;;;;5.13;4.63;;;28.70;99.20;;;-141.84;34.17;22902.22;5049840;28;20235;-59
2022/07/20 06:54:22;;;;;;;6.40;4.15;;;28.70;99.00;;;-141.84;33.86;22887.97;5049930;28;20240;-60
2022/07/20 06:56:51;;;;;;;9.23;4.13;;;28.70;98.90;;;-141.84;34.25;22904.25;5049864;28;20239;-61
2022/07/20 06:59:19;;;;;;;5.07;4.05;;;28.80;99.10;;;-141.84;34.20;22877.81;5039136;28;20229;-58
2022/07/20 07:01:48;;;;;;;7.63;4.35;;;28.90;99.20;;;-141.84;34.25;22890.00;5030552;28;20225;-59
2022/07/20 07:04:17;;;;;;;6.05;4.10;;;28.90;99.20;;;-141.84;34.25;22910.34;5030376;28;20293;-58
2022/07/20 07:06:46;;;;;;;8.10;4.60;;;28.90;99.00;;;-141.84;34.25;22910.34;5040080;28;20790;-57
2022/07/20 07:09:14;;;;;;;6.43;4.80;;;28.80;98.90;;;-141.84;33.89;22924.59;5049703;28;20309;-57
2022/07/20 07:11:42;;;;;;;7.65;4.50;;;28.80;98.80;;;-141.84;34.19;22924.59;5049572;28;20255;-58
2022/07/20 07:14:10;;;;;;;7.88;4.30;;;28.80;99.10;;;-141.84;33.45;22995.78;5049845;28;20704;-59
2022/07/20 07:16:38;;;;;;;7.05;5.00;;;28.80;98.70;;;-141.84;33.94;22940.84;5050120;28;20608;-60
2022/07/20 07:19:08;;;;;;;9.75;4.70;;;28.90;98.70;;;-141.84;34.03;22938.81;5049545;28;20248;-59
2022/07/20 07:21:36;;;;;;;6.78;4.20;;;28.80;98.80;;;-141.84;33.42;22949.00;5049727;28;20312;-59
2022/07/20 07:24:06;;;;;;;5.43;3.97;;;28.80;98.30;;;-141.84;33.70;22967.31;5049434;28;20260;-58
2022/07/20 07:26:34;;;;;;;9.00;4.32;;;28.90;98.50;;;-141.84;33.77;22999.84;5049779;28;20727;-59
2022/07/20 07:29:02;;;;;;;5.43;4.10;;;28.80;98.30;;;-141.84;33.50;23003.91;5049368;28;20237;-59
2022/07/20 07:31:32;;;;;;;6.47;4.20;;;28.90;98.50;;;-141.84;33.64;22989.69;5050427;28;20236;-58
2022/07/20 07:34:01;;;;;;;6.80;4.50;;;28.90;98.40;;;-141.84;33.53;22995.78;5049570;28;20283;-59
2022/07/20 07:36:30;;;;;;;7.20;4.30;;;29.00;98.00;;;-141.84;33.57;22930.69;5049797;28;20245;-56
2022/07/20 07:38:59;;;;;;;8.05;4.05;;;28.90;98.10;;;-141.84;34.00;22932.72;5050810;28;20229;-59
2022/07/20 07:41:27;;;;;;;6.10;4.40;;;28.80;98.50;;;-141.84;34.13;22989.69;5053623;28;20291;-58
2022/07/20 07:43:55;;;;;;;7.80;4.22;;;28.90;98.90;;;-141.84;32.85;23176.81;5051893;28;20229;-59
2022/07/20 07:46:24;;;;;;;11.93;4.32;;;29.20;98.50;;;-141.84;31.98;23252.06;5051698;28;20201;-59
2022/07/20 07:48:52;;;;;;;5.05;3.88;;;29.40;97.40;;;-141.84;32.07;23225.63;5053262;28;20249;-60
2022/07/20 07:51:21;;;;;;;7.15;4.13;;;29.50;97.40;;;-141.84;32.74;23201.22;5050341;28;20225;-59
2022/07/20 07:53:51;;;;;;;6.47;4.20;;;29.50;97.50;;;-141.84;32.24;23193.09;5052566;28;20233;-59
2022/07/20 07:56:19;;;;;;;8.82;4.47;;;29.60;97.10;;;-141.84;32.05;23217.50;5050835;28;20304;-59
2022/07/20 07:58:47;;;;;;;6.50;4.32;;;29.60;96.90;;;-141.84;32.85;23125.97;5046994;28;20662;-59
2022/07/20 08:01:35;;;;;;;6.68;4.10;;;29.60;97.20;;;-141.84;32.99;23115.78;5030624;28;20225;-57
2022/07/20 08:04:04;;;;;;;9.77;3.92;;;29.50;97.50;;;-141.84;32.84;23123.94;5050040;28;20221;-60
2022/07/20 08:06:33;;;;;;;7.40;4.00;;;29.40;97.50;;;-141.84;32.87;23113.75;5053063;28;20233;-60
2022/07/20 08:09:02;;;;;;;7.97;4.28;;;29.50;97.40;;;-141.84;33.35;23121.88;5052944;28;20228;-60
2022/07/20 08:11:31;;;;;;;8.38;4.38;;;29.50;97.90;;;-141.84;33.32;23154.44;5053193;28;20236;-60
2022/07/20 08:14:02;;;;;;;7.13;4.57;;;29.50;98.00;;;-141.84;33.89;23083.25;5052711;28;20229;-60
2022/07/20 08:16:32;;;;;;;8.38;4.47;;;29.40;98.50;;;-141.84;33.73;23089.34;5052873;28;20507;-61
2022/07/20 08:19:01;;;;;;;6.47;4.30;;;29.40;98.30;;;-141.84;33.74;23079.19;5052508;28;20355;-60
2022/07/20 08:21:29;;;;;;;9.45;4.40;;;29.40;98.40;;;-141.84;33.79;23132.06;5052563;28;20221;-59
2022/07/20 08:24:04;;;;;;;9.48;4.68;;;29.50;98.40;;;-141.84;33.12;23150.38;5052283;28;20223;-57
2022/07/20 08:26:33;;;;;;;7.18;4.38;;;29.60;97.60;;;-141.84;33.02;23160.53;5052626;28;20221;-58
2022/07/20 08:29:02;;;;;;;5.90;4.32;;;29.60;97.80;;;-141.84;33.07;23148.34;5052369;28;20229;-59
2022/07/20 08:31:38;;;;;;;7.57;4.50;;;29.60;97.50;;;-141.84;32.98;23162.56;5052944;28;20211;-59
2022/07/20 08:34:07;;;;;;;5.85;4.05;;;29.60;97.40;;;-141.84;33.27;23150.38;5052032;28;20308;-60
2022/07/20 08:36:35;;;;;;;5.25;4.30;;;29.70;97.60;;;-141.84;33.33;23168.69;5052312;28;20240;-60
2022/07/20 08:39:06;;;;;;;4.85;3.83;;;29.70;98.10;;;-141.84;32.99;23221.56;5052508;28;20317;-61
2022/07/20 08:41:35;;;;;;;4.63;3.88;;;29.80;97.40;;;-141.84;32.84;23205.28;5052152;28;20789;-59
2022/07/20 08:44:04;;;;;;;4.47;3.70;;;29.80;97.10;;;-141.84;32.52;23302.94;5051930;28;20665;-54
2022/07/20 08:46:35;;;;;;;5.25;4.00;;;29.90;96.90;;;-141.84;32.45;23282.59;5052267;28;20292;-54
2022/07/20 08:49:04;;;;;;;5.93;3.80;;;30.00;97.00;;;-141.84;32.32;23329.38;5052001;28;20255;-58
2022/07/20 08:51:32;;;;;;;5.88;4.13;;;30.00;96.90;;;-141.84;32.04;23292.75;5051432;28;20231;-59
2022/07/20 08:54:04;;;;;;;4.13;3.72;;;30.10;96.20;;;-141.84;31.57;23327.34;5052016;28;20236;-58
2022/07/20 08:56:32;;;;;;;6.80;4.30;;;30.20;96.30;;;-141.84;31.98;23355.81;5052006;28;20225;-58
2022/07/20 08:59:00;;;;;;;5.47;4.07;;;30.20;96.50;;;-141.84;32.04;23374.13;5051452;28;20250;-60
2022/07/20 09:01:29;;;;;;;6.18;3.78;;;30.30;96.60;;;-141.84;31.50;23437.19;5051649;28;20599;-58
2022/07/20 09:04:12;;;;;;;6.15;4.10;;;30.40;96.20;;;-141.84;31.19;23437.19;5051327;28;20346;-60
2022/07/20 09:06:47;;;;;;;22.85;6.20;;;30.50;95.90;;;-141.84;31.08;23498.22;5050014;28;20225;-58
2022/07/20 09:09:19;;;;;;;6.72;3.95;;;30.60;95.60;;;-141.84;31.20;23492.09;5049987;28;20240;-59
2022/07/20 09:11:48;;;;;;;5.05;3.60;;;30.60;95.70;;;-141.84;30.73;23571.44;5051479;28;20231;-60
2022/07/20 09:14:40;;;;;;;5.32;3.40;;;30.70;95.00;;;-141.84;30.42;23502.28;5051508;28;20229;-59
2022/07/20 09:17:20;;;;;;;10.57;9.57;;;30.70;94.80;;;-141.84;30.48;23577.56;5051171;28;20317;-60
2022/07/20 09:19:56;;;;;;;8.15;4.60;;;30.80;94.60;;;-141.84;30.15;23587.72;5052137;28;20185;-60
2022/07/20 09:22:34;;;;;;;4.70;3.92;;;30.90;94.20;;;-141.84;30.01;23622.31;5051838;28;20359;-59
2022/07/20 09:25:12;;;;;;;6.53;3.67;;;30.90;94.20;;;-141.84;30.29;23612.13;5051152;28;20592;-57
2022/07/20 09:27:42;;;;;;;6.18;3.40;;;31.00;94.40;;;-141.84;29.92;23636.53;5051163;28;20221;-59
2022/07/20 09:30:13;;;;;;;5.40;3.65;;;31.00;94.30;;;-141.84;29.44;23713.84;5050914;28;20235;-60
2022/07/20 09:32:56;;;;;;;7.57;3.38;;;31.20;93.80;;;-141.84;28.86;23821.69;5051192;28;20236;-59
2022/07/20 09:35:28;;;;;;;5.15;3.00;;;31.30;92.60;;;-141.84;28.42;23840.00;5050975;28;20320;-57
2022/07/20 09:38:00;;;;;;;10.07;3.50;;;31.40;92.50;;;-141.84;28.34;23840.00;5049902;28;20375;-59
2022/07/20 09:40:43;;;;;;;7.45;3.60;;;31.50;92.30;;;-141.84;28.35;23840.00;5051496;28;20615;-61
2022/07/20 09:43:27;;;;;;;4.60;3.33;;;31.50;92.20;;;-141.84;28.38;23976.31;5051003;28;20233;-60
2022/07/20 09:45:55;;;;;;;7.18;3.47;;;31.70;92.40;;;-141.84;28.51;23935.59;5050865;28;20225;-60
2022/07/20 09:48:24;;;;;;;4.28;3.22;;;31.70;92.10;;;-141.84;28.17;23947.81;5050844;28;20229;-60
2022/07/20 09:50:52;;;;;;;7.30;3.33;;;31.80;92.20;;;-141.84;28.55;23974.25;5050608;28;20312;-60
2022/07/20 09:53:20;;;;;;;8.43;3.67;;;31.90;92.20;;;-141.84;27.96;23998.69;5050853;28;20225;-58
2022/07/20 09:55:53;;;;;;;3.58;3.28;;;31.90;91.80;;;-141.84;28.06;24031.22;5050452;28;20228;-61
2022/07/20 09:58:25;;;;;;;4.28;3.10;;;31.90;91.70;;;-141.84;27.77;24053.63;5048583;28;20200;-60
2022/07/20 10:00:54;;;;;;;11.23;3.90;;;32.00;91.40;;;-141.84;28.17;24080.06;5030472;28;20232;-60
2022/07/20 10:03:22;;;;;;;6.18;3.60;;;32.00;91.50;;;-141.84;27.82;24124.81;5029897;28;20226;-59
2022/07/20 10:05:50;;;;;;;5.00;3.38;;;32.20;91.10;;;-141.84;27.71;24108.53;5030521;28;20236;-60
2022/07/20 10:08:19;;;;;;;6.93;3.70;;;32.20;91.10;;;-141.84;27.40;24132.97;5030866;28;20316;-59
2022/07/20 10:10:47;;;;;;;5.97;3.45;;;32.20;90.70;;;-141.84;27.48;24147.19;5031164;28;20221;-59
2022/07/20 10:13:17;;;;;;;7.18;3.42;;;32.30;90.80;;;-141.84;26.95;24257.06;5030711;28;20222;-60
2022/07/20 10:15:57;;;;;;;6.43;3.60;;;32.40;90.40;;;-141.84;26.81;24253.00;5030153;28;20230;-58
2022/07/20 10:18:26;;;;;;;7.78;3.47;;;32.50;90.10;;;-141.84;27.48;24257.06;5030498;28;20309;-59